Capitol Logistics 306


KRFD
Chicago/Rockford International Airport
Rockford, Illinois, US
KSEA
Seattle-Tacoma International Airport
Seattle, Washington, US

Activity Log

Date Flight Route Aircraft Duration
11/26/2019 CPX416 RFD COTON J30 ODI KP90G KP09A DIK KU15Q GEG GLASR1 B738 3h 58m
01/15/2019 CPX416 RFD DBQ MCW J16 BIL J136 HLN J34 ODESS EPH8 B752 3h 35m
11/25/2018 CPX326 RFD COTON J30 ODI KP90G KP09A DIK KU15Q GEG GLASR1 B752 3h 56m

Route Details

Aircraft Information
Primary: Boeing 767-300BDSF
Backup: Not Available
Route Data
Distance: 1684nm
Sched. Duration: 4h 40m
Avg. Duration: 3h 49m (-90m)
Times Flown: 3
Recm'd Route: RFD COTON J30 ODI KP90G KP09A DIK KU15Q GEG GLASR1
Planned Altitude: 34,000ft
Origin Wx: KRFD 272154Z 30014KT 10SM FEW036 M01/M11 A3006 RMK AO2 SLP189 T10111106
Dest. Wx: KSEA 272153Z 26006KT 10SM FEW030 BKN250 12/03 A3039 RMK AO2 SLP299 T01220033
Notes:

Financial History
Total Freight: 147,172lbs
Average Load: 49,057lbs/flt
Fuel Used: 81,355lbs
Avg. Fuel Used: 27,118lbs/flt
Fuel Expense: $57,757
Avg. Fuel Expense: $19,252
Avg. Fuel Cost: $0.71/lbs
Total Gross Income: $193,863
Pilot Pay: $617
Total Expenses: $21,093
Total Revenue: $112,361
Average Revenue: $64,621.09